SDM5979 UWGG-HEGN
Flight info
| Callsign | SDM5979 |
|---|---|
| Flight time | 5h 16m |
| Altitude | 33000 |
| Route | OKSUD2S OKSUD T778 TERDI P165 DAFOS P135 UROBO R807 IDORI A927 SL A964 NOKLI N72 DUBOS W87 AST DCT DITEK DCT KZ R227 BEMES A944 GUBOR G487 ODIRA/N0454F330 UW96 SIN UT61 BAG UW77 AYT UM855 TOMBI M855 RASDA A16 CVO L315 SOKOT SOKOT1A |
| Aircraft | B738/M-SDE2E3FGHIRWXY/LB1 |
Departure
| Time | 2026-04-21 09:31 |
|---|---|
| Airport | Nizhny Novgorod / Strigino International Airport (UWGG) |
Arrival
| Time | 2026-04-21 14:48 |
|---|---|
| Airport | Hurghada International Airport (HEGN) |
| Time | Latitude | Longitude | Altitude | Speed | Heading |
|---|---|---|---|---|---|
| 2026-04-21 08:56 | 56.22133 | 43.78957 | 265 ft | 0 kts | 102° |
| 2026-04-21 09:19 | 56.22135 | 43.78940 | 265 ft | 2 kts | 101° |
| 2026-04-21 09:19 | 56.22139 | 43.78911 | 265 ft | 2 kts | 121° |
| 2026-04-21 09:19 | 56.22151 | 43.78892 | 265 ft | 2 kts | 165° |
| 2026-04-21 09:20 | 56.22166 | 43.78889 | 265 ft | 1 kts | 185° |
| 2026-04-21 09:20 | 56.22170 | 43.78890 | 265 ft | 0 kts | 188° |
| 2026-04-21 09:24 | 56.22162 | 43.78887 | 265 ft | 2 kts | 189° |
| 2026-04-21 09:24 | 56.22142 | 43.78880 | 265 ft | 4 kts | 191° |
| 2026-04-21 09:24 | 56.22111 | 43.78869 | 265 ft | 5 kts | 191° |
| 2026-04-21 09:25 | 56.22076 | 43.78850 | 265 ft | 3 kts | 212° |
| 2026-04-21 09:25 | 56.22067 | 43.78811 | 265 ft | 4 kts | 266° |
| 2026-04-21 09:25 | 56.22072 | 43.78763 | 265 ft | 4 kts | 280° |
| 2026-04-21 09:25 | 56.22072 | 43.78707 | 265 ft | 5 kts | 254° |
| 2026-04-21 09:26 | 56.22047 | 43.78674 | 265 ft | 5 kts | 195° |
| 2026-04-21 09:26 | 56.22008 | 43.78658 | 265 ft | 7 kts | 191° |
| 2026-04-21 09:26 | 56.21958 | 43.78641 | 265 ft | 7 kts | 189° |
| 2026-04-21 09:26 | 56.21909 | 43.78618 | 265 ft | 7 kts | 206° |
| 2026-04-21 09:27 | 56.21861 | 43.78591 | 265 ft | 7 kts | 192° |
| 2026-04-21 09:27 | 56.21813 | 43.78572 | 265 ft | 7 kts | 192° |
| 2026-04-21 09:27 | 56.21764 | 43.78554 | 265 ft | 7 kts | 192° |
| 2026-04-21 09:27 | 56.21714 | 43.78535 | 265 ft | 8 kts | 191° |
| 2026-04-21 09:28 | 56.21650 | 43.78513 | 265 ft | 11 kts | 191° |
| 2026-04-21 09:28 | 56.21570 | 43.78483 | 265 ft | 12 kts | 192° |
| 2026-04-21 09:28 | 56.21497 | 43.78451 | 265 ft | 8 kts | 204° |
| 2026-04-21 09:28 | 56.21479 | 43.78392 | 265 ft | 6 kts | 269° |
| 2026-04-21 09:29 | 56.21485 | 43.78324 | 265 ft | 6 kts | 282° |
| 2026-04-21 09:29 | 56.21493 | 43.78257 | 266 ft | 5 kts | 282° |
| 2026-04-21 09:29 | 56.21501 | 43.78190 | 266 ft | 5 kts | 282° |
| 2026-04-21 09:29 | 56.21509 | 43.78119 | 266 ft | 7 kts | 282° |
| 2026-04-21 09:30 | 56.21536 | 43.78059 | 267 ft | 7 kts | 342° |
| 2026-04-21 09:30 | 56.21583 | 43.78065 | 268 ft | 8 kts | 12° |
| 2026-04-21 09:30 | 56.21767 | 43.78135 | 266 ft | 57 kts | 11° |
| 2026-04-21 09:30 | 56.22361 | 43.78351 | 266 ft | 115 kts | 11° |
| 2026-04-21 09:31 | 56.23297 | 43.78690 | 294 ft | 159 kts | 10° |
| 2026-04-21 09:31 | 56.24433 | 43.79119 | 785 ft | 169 kts | 10° |
| 2026-04-21 09:31 | 56.25555 | 43.79527 | 1771 ft | 158 kts | 9° |
| 2026-04-21 09:31 | 56.26617 | 43.79950 | 2542 ft | 157 kts | 12° |
| 2026-04-21 09:32 | 56.27688 | 43.80346 | 3232 ft | 157 kts | 13° |
| 2026-04-21 09:32 | 56.28794 | 43.80749 | 3629 ft | 174 kts | 13° |
| 2026-04-21 09:32 | 56.30054 | 43.81209 | 3810 ft | 194 kts | 13° |
| 2026-04-21 09:32 | 56.31451 | 43.81718 | 4014 ft | 213 kts | 12° |
| 2026-04-21 09:33 | 56.32940 | 43.82259 | 4331 ft | 228 kts | 12° |
| 2026-04-21 09:33 | 56.34571 | 43.82852 | 4664 ft | 244 kts | 12° |
| 2026-04-21 09:33 | 56.36236 | 43.83456 | 5478 ft | 243 kts | 13° |
| 2026-04-21 09:33 | 56.37880 | 43.84116 | 6146 ft | 247 kts | 21° |
| 2026-04-21 09:34 | 56.39299 | 43.85858 | 6754 ft | 250 kts | 49° |
| 2026-04-21 09:34 | 56.40125 | 43.88650 | 7372 ft | 258 kts | 72° |
| 2026-04-21 09:34 | 56.40264 | 43.91907 | 7988 ft | 266 kts | 92° |
| 2026-04-21 09:34 | 56.40037 | 43.95246 | 8637 ft | 269 kts | 95° |
| 2026-04-21 09:35 | 56.39773 | 43.98611 | 9299 ft | 272 kts | 95° |
| 2026-04-21 09:35 | 56.39507 | 44.02020 | 9893 ft | 276 kts | 95° |
| 2026-04-21 09:35 | 56.39244 | 44.05511 | 10106 ft | 294 kts | 95° |
| 2026-04-21 09:35 | 56.38965 | 44.09307 | 10270 ft | 313 kts | 95° |
| 2026-04-21 09:36 | 56.38673 | 44.13310 | 10426 ft | 331 kts | 95° |
| 2026-04-21 09:36 | 56.38243 | 44.17517 | 10568 ft | 351 kts | 108° |
| 2026-04-21 09:36 | 56.36984 | 44.21365 | 11003 ft | 364 kts | 130° |
| 2026-04-21 09:36 | 56.34975 | 44.24184 | 11641 ft | 371 kts | 150° |
| 2026-04-21 09:37 | 56.32670 | 44.26197 | 12273 ft | 374 kts | 153° |
| 2026-04-21 09:37 | 56.30280 | 44.28138 | 12829 ft | 379 kts | 153° |
| 2026-04-21 09:37 | 56.27847 | 44.30077 | 13383 ft | 384 kts | 153° |
| 2026-04-21 09:37 | 56.25395 | 44.32035 | 13911 ft | 387 kts | 153° |
| 2026-04-21 09:38 | 56.22917 | 44.34031 | 14439 ft | 390 kts | 153° |
| 2026-04-21 09:38 | 56.20428 | 44.36052 | 14937 ft | 394 kts | 153° |
| 2026-04-21 09:38 | 56.17959 | 44.38069 | 15452 ft | 396 kts | 153° |
| 2026-04-21 09:38 | 56.15434 | 44.40137 | 15976 ft | 399 kts | 153° |
| 2026-04-21 09:39 | 56.12889 | 44.42223 | 16482 ft | 403 kts | 153° |
| 2026-04-21 09:39 | 56.10329 | 44.44321 | 16985 ft | 406 kts | 153° |
| 2026-04-21 09:39 | 56.07741 | 44.46439 | 17469 ft | 410 kts | 153° |
| 2026-04-21 09:39 | 56.05165 | 44.48546 | 17920 ft | 414 kts | 153° |
| 2026-04-21 09:40 | 56.02522 | 44.50702 | 18341 ft | 417 kts | 153° |
| 2026-04-21 09:40 | 55.99872 | 44.52862 | 18788 ft | 420 kts | 152° |
| 2026-04-21 09:40 | 55.97200 | 44.55035 | 19233 ft | 422 kts | 152° |
| 2026-04-21 09:40 | 55.94516 | 44.57215 | 19649 ft | 425 kts | 152° |
| 2026-04-21 09:41 | 55.91849 | 44.59379 | 20030 ft | 428 kts | 152° |
| 2026-04-21 09:41 | 55.89115 | 44.61593 | 20425 ft | 431 kts | 152° |
| 2026-04-21 09:41 | 55.86367 | 44.63815 | 20840 ft | 434 kts | 152° |
| 2026-04-21 09:41 | 55.83606 | 44.66044 | 21253 ft | 437 kts | 151° |
| 2026-04-21 09:42 | 55.80821 | 44.68288 | 21642 ft | 440 kts | 151° |
| 2026-04-21 09:42 | 55.78059 | 44.70511 | 22031 ft | 442 kts | 151° |
| 2026-04-21 09:42 | 55.75240 | 44.72776 | 22420 ft | 445 kts | 151° |
| 2026-04-21 09:42 | 55.72403 | 44.75051 | 22800 ft | 448 kts | 151° |
| 2026-04-21 09:43 | 55.69554 | 44.77333 | 23168 ft | 450 kts | 151° |
| 2026-04-21 09:43 | 55.66686 | 44.79626 | 23476 ft | 452 kts | 151° |
| 2026-04-21 09:43 | 55.63810 | 44.81922 | 23785 ft | 454 kts | 151° |
| 2026-04-21 09:43 | 55.60956 | 44.84197 | 24080 ft | 456 kts | 151° |
| 2026-04-21 09:44 | 55.58050 | 44.86524 | 24367 ft | 457 kts | 149° |
| 2026-04-21 09:44 | 55.55398 | 44.89524 | 24590 ft | 450 kts | 133° |
| 2026-04-21 09:44 | 55.53112 | 44.93309 | 24915 ft | 450 kts | 131° |
| 2026-04-21 09:44 | 55.50869 | 44.97093 | 25180 ft | 452 kts | 131° |
| 2026-04-21 09:45 | 55.48580 | 45.00938 | 25425 ft | 455 kts | 132° |
| 2026-04-21 09:45 | 55.46266 | 45.04784 | 25677 ft | 457 kts | 132° |
| 2026-04-21 09:45 | 55.43931 | 45.08627 | 25935 ft | 459 kts | 133° |
| 2026-04-21 09:45 | 55.41581 | 45.12464 | 26192 ft | 461 kts | 133° |
| 2026-04-21 09:46 | 55.39214 | 45.16308 | 26434 ft | 463 kts | 133° |
| 2026-04-21 09:46 | 55.36858 | 45.20121 | 26671 ft | 466 kts | 133° |
| 2026-04-21 09:46 | 55.34460 | 45.23993 | 26900 ft | 468 kts | 134° |
| 2026-04-21 09:46 | 55.32056 | 45.27869 | 27144 ft | 470 kts | 134° |
| 2026-04-21 09:47 | 55.29640 | 45.31758 | 27397 ft | 472 kts | 134° |
| 2026-04-21 09:47 | 55.27217 | 45.35654 | 27682 ft | 472 kts | 134° |
| 2026-04-21 09:47 | 55.24792 | 45.39545 | 28053 ft | 471 kts | 134° |
| 2026-04-21 09:47 | 55.22401 | 45.43375 | 28417 ft | 470 kts | 134° |
| 2026-04-21 09:48 | 55.19979 | 45.47249 | 28724 ft | 470 kts | 134° |
| 2026-04-21 09:48 | 55.17551 | 45.51127 | 28992 ft | 471 kts | 134° |
| 2026-04-21 09:48 | 55.15158 | 45.54943 | 29316 ft | 471 kts | 135° |
| 2026-04-21 09:48 | 55.12729 | 45.58810 | 29670 ft | 469 kts | 135° |
| 2026-04-21 09:49 | 55.10307 | 45.62658 | 29930 ft | 469 kts | 135° |
| 2026-04-21 09:49 | 55.07887 | 45.66496 | 30138 ft | 469 kts | 135° |
| 2026-04-21 09:49 | 55.05469 | 45.70326 | 30336 ft | 470 kts | 136° |
| 2026-04-21 09:49 | 55.03075 | 45.74112 | 30558 ft | 470 kts | 136° |
| 2026-04-21 09:50 | 55.00655 | 45.77932 | 30782 ft | 470 kts | 136° |
| 2026-04-21 09:50 | 54.99835 | 45.79224 | 30845 ft | 470 kts | 136° |
| 2026-04-21 09:50 | 54.93350 | 45.89423 | 31348 ft | 471 kts | 136° |
| 2026-04-21 09:51 | 54.90913 | 45.93243 | 31565 ft | 471 kts | 136° |
| 2026-04-21 09:51 | 54.88481 | 45.97049 | 31794 ft | 470 kts | 137° |
| 2026-04-21 09:51 | 54.86081 | 46.00799 | 32006 ft | 470 kts | 137° |
| 2026-04-21 09:51 | 54.83647 | 46.04599 | 32181 ft | 471 kts | 137° |
| 2026-04-21 09:52 | 54.81206 | 46.08401 | 32367 ft | 471 kts | 138° |
| 2026-04-21 09:52 | 54.78761 | 46.12186 | 32581 ft | 470 kts | 139° |
| 2026-04-21 09:52 | 54.73692 | 46.19379 | 32648 ft | 473 kts | 142° |
| 2026-04-21 09:53 | 54.68507 | 46.26395 | 32647 ft | 472 kts | 142° |
| 2026-04-21 09:53 | 54.63343 | 46.33413 | 32648 ft | 471 kts | 142° |
| 2026-04-21 09:54 | 54.58209 | 46.40433 | 32651 ft | 470 kts | 142° |
| 2026-04-21 09:54 | 54.53083 | 46.47437 | 32652 ft | 470 kts | 142° |
| 2026-04-21 09:55 | 54.48001 | 46.54357 | 32658 ft | 469 kts | 143° |
| 2026-04-21 09:55 | 54.42870 | 46.61317 | 32662 ft | 469 kts | 143° |
| 2026-04-21 09:56 | 54.37736 | 46.68258 | 32666 ft | 470 kts | 143° |
| 2026-04-21 09:56 | 54.32584 | 46.75205 | 32669 ft | 471 kts | 143° |
| 2026-04-21 09:57 | 54.27364 | 46.81980 | 32654 ft | 470 kts | 153° |
| 2026-04-21 09:57 | 54.24397 | 46.84022 | 32692 ft | 464 kts | 169° |
| 2026-04-21 09:57 | 54.21220 | 46.84687 | 32665 ft | 460 kts | 184° |
| 2026-04-21 09:58 | 54.14945 | 46.82899 | 32674 ft | 457 kts | 194° |
| 2026-04-21 09:58 | 54.08693 | 46.80693 | 32678 ft | 459 kts | 193° |
| 2026-04-21 09:59 | 54.02399 | 46.78671 | 32686 ft | 460 kts | 192° |
| 2026-04-21 09:59 | 53.96119 | 46.76736 | 32695 ft | 461 kts | 192° |
| 2026-04-21 10:00 | 53.89811 | 46.74804 | 32700 ft | 458 kts | 192° |
| 2026-04-21 10:00 | 53.83554 | 46.72886 | 32700 ft | 454 kts | 192° |
| 2026-04-21 10:01 | 53.77370 | 46.70992 | 32705 ft | 451 kts | 193° |
| 2026-04-21 10:01 | 53.71209 | 46.69021 | 32707 ft | 449 kts | 193° |
| 2026-04-21 10:02 | 53.62033 | 46.66045 | 32724 ft | 448 kts | 193° |
| 2026-04-21 10:03 | 53.55900 | 46.64078 | 32726 ft | 449 kts | 193° |
| 2026-04-21 10:03 | 53.49731 | 46.62107 | 32724 ft | 451 kts | 193° |
| 2026-04-21 10:04 | 53.43547 | 46.60172 | 32737 ft | 453 kts | 193° |
| 2026-04-21 10:04 | 53.37358 | 46.58265 | 32744 ft | 454 kts | 193° |
| 2026-04-21 10:05 | 53.32175 | 46.56666 | 32739 ft | 455 kts | 193° |
| 2026-04-21 10:05 | 53.25933 | 46.54743 | 32749 ft | 456 kts | 193° |
| 2026-04-21 10:06 | 53.19690 | 46.52827 | 32749 ft | 455 kts | 193° |
| 2026-04-21 10:06 | 53.13493 | 46.50930 | 32752 ft | 454 kts | 193° |
| 2026-04-21 10:07 | 53.07290 | 46.49036 | 32760 ft | 452 kts | 193° |
| 2026-04-21 10:07 | 53.01103 | 46.47151 | 32771 ft | 451 kts | 193° |
| 2026-04-21 10:08 | 52.94940 | 46.45281 | 32765 ft | 449 kts | 193° |
| 2026-04-21 10:08 | 52.88833 | 46.43437 | 32780 ft | 447 kts | 193° |
| 2026-04-21 10:09 | 52.82712 | 46.41594 | 32775 ft | 446 kts | 193° |
| 2026-04-21 10:09 | 52.76648 | 46.39772 | 32789 ft | 445 kts | 193° |
| 2026-04-21 10:10 | 52.70562 | 46.37948 | 32790 ft | 444 kts | 193° |
| 2026-04-21 10:10 | 52.64479 | 46.36130 | 32797 ft | 444 kts | 193° |
| 2026-04-21 10:11 | 52.58398 | 46.34318 | 32801 ft | 444 kts | 193° |
| 2026-04-21 10:11 | 52.52308 | 46.32508 | 32809 ft | 444 kts | 193° |
| 2026-04-21 10:12 | 52.46226 | 46.30704 | 32810 ft | 444 kts | 194° |
| 2026-04-21 10:12 | 52.40168 | 46.28914 | 32811 ft | 445 kts | 194° |
| 2026-04-21 10:13 | 52.34069 | 46.27119 | 32820 ft | 445 kts | 194° |
| 2026-04-21 10:13 | 52.27973 | 46.25328 | 32822 ft | 445 kts | 194° |
| 2026-04-21 10:14 | 52.21873 | 46.23539 | 32824 ft | 445 kts | 194° |
| 2026-04-21 10:14 | 52.15779 | 46.21760 | 32835 ft | 444 kts | 194° |
| 2026-04-21 10:15 | 52.09722 | 46.19999 | 32824 ft | 444 kts | 194° |
| 2026-04-21 10:15 | 52.03648 | 46.18236 | 32844 ft | 443 kts | 194° |
| 2026-04-21 10:16 | 51.97552 | 46.16471 | 32842 ft | 443 kts | 194° |
| 2026-04-21 10:16 | 51.91491 | 46.14717 | 32843 ft | 442 kts | 194° |
| 2026-04-21 10:17 | 51.85468 | 46.12978 | 32847 ft | 441 kts | 194° |
| 2026-04-21 10:17 | 51.79420 | 46.11236 | 32857 ft | 440 kts | 194° |
| 2026-04-21 10:18 | 51.73431 | 46.09515 | 32856 ft | 439 kts | 194° |
| 2026-04-21 10:18 | 51.67407 | 46.07789 | 32854 ft | 439 kts | 194° |
| 2026-04-21 10:19 | 51.61390 | 46.06069 | 32858 ft | 438 kts | 194° |
| 2026-04-21 10:19 | 51.55452 | 46.03957 | 32851 ft | 433 kts | 204° |
| 2026-04-21 10:20 | 51.50051 | 45.99977 | 32854 ft | 428 kts | 210° |
| 2026-04-21 10:20 | 51.44688 | 45.95805 | 32868 ft | 428 kts | 209° |
| 2026-04-21 10:21 | 51.39343 | 45.91707 | 32867 ft | 428 kts | 209° |
| 2026-04-21 10:21 | 51.33955 | 45.87617 | 32866 ft | 428 kts | 209° |
| 2026-04-21 10:22 | 51.28569 | 45.83544 | 32868 ft | 427 kts | 209° |
| 2026-04-21 10:22 | 51.23215 | 45.79506 | 32874 ft | 427 kts | 209° |
| 2026-04-21 10:23 | 51.17834 | 45.75456 | 32872 ft | 426 kts | 209° |
| 2026-04-21 10:23 | 51.12465 | 45.71424 | 32876 ft | 425 kts | 209° |
| 2026-04-21 10:24 | 51.07146 | 45.67440 | 32879 ft | 425 kts | 209° |
| 2026-04-21 10:24 | 51.01683 | 45.63815 | 32880 ft | 429 kts | 199° |
| 2026-04-21 10:25 | 50.95843 | 45.61738 | 32882 ft | 430 kts | 197° |
| 2026-04-21 10:25 | 50.89995 | 45.59708 | 32891 ft | 429 kts | 197° |
| 2026-04-21 10:26 | 50.84203 | 45.57639 | 32894 ft | 428 kts | 197° |
| 2026-04-21 10:26 | 50.78385 | 45.55554 | 32893 ft | 428 kts | 197° |
| 2026-04-21 10:27 | 50.72563 | 45.53510 | 32891 ft | 427 kts | 197° |
| 2026-04-21 10:27 | 50.66747 | 45.51491 | 32895 ft | 427 kts | 197° |
| 2026-04-21 10:28 | 50.60980 | 45.49491 | 32894 ft | 426 kts | 197° |
| 2026-04-21 10:28 | 50.55187 | 45.47484 | 32900 ft | 426 kts | 197° |
| 2026-04-21 10:29 | 50.49402 | 45.45483 | 32901 ft | 425 kts | 197° |
| 2026-04-21 10:29 | 50.43605 | 45.43483 | 32908 ft | 425 kts | 197° |
| 2026-04-21 10:30 | 50.37856 | 45.41504 | 32905 ft | 425 kts | 197° |
| 2026-04-21 10:30 | 50.32080 | 45.39521 | 32908 ft | 424 kts | 197° |
| 2026-04-21 10:31 | 50.26305 | 45.37543 | 32909 ft | 424 kts | 197° |
| 2026-04-21 10:31 | 50.20531 | 45.35570 | 32906 ft | 423 kts | 197° |
| 2026-04-21 10:32 | 50.14797 | 45.33616 | 32919 ft | 423 kts | 196° |
| 2026-04-21 10:32 | 50.09046 | 45.31660 | 32922 ft | 423 kts | 196° |
| 2026-04-21 10:33 | 50.03318 | 45.29717 | 32919 ft | 422 kts | 196° |
| 2026-04-21 10:33 | 49.97658 | 45.27481 | 32929 ft | 420 kts | 200° |
| 2026-04-21 10:34 | 49.92037 | 45.24946 | 32919 ft | 420 kts | 200° |
| 2026-04-21 10:34 | 49.86413 | 45.22427 | 32929 ft | 420 kts | 200° |
| 2026-04-21 10:35 | 49.80818 | 45.19961 | 32930 ft | 420 kts | 199° |
| 2026-04-21 10:35 | 49.75186 | 45.17494 | 32931 ft | 421 kts | 200° |
| 2026-04-21 10:36 | 49.69549 | 45.15030 | 32929 ft | 421 kts | 200° |
| 2026-04-21 10:36 | 49.63910 | 45.12576 | 32936 ft | 420 kts | 199° |
| 2026-04-21 10:37 | 49.58276 | 45.10142 | 32937 ft | 420 kts | 199° |
| 2026-04-21 10:37 | 49.52644 | 45.07714 | 32934 ft | 420 kts | 199° |
| 2026-04-21 10:38 | 49.47046 | 45.05305 | 32936 ft | 420 kts | 199° |
| 2026-04-21 10:38 | 49.41419 | 45.02888 | 32941 ft | 419 kts | 199° |
| 2026-04-21 10:39 | 49.35804 | 45.00482 | 32940 ft | 419 kts | 199° |
| 2026-04-21 10:39 | 49.30226 | 44.98097 | 32942 ft | 418 kts | 199° |
| 2026-04-21 10:40 | 49.24613 | 44.95703 | 32945 ft | 418 kts | 199° |
| 2026-04-21 10:40 | 49.19012 | 44.93321 | 32942 ft | 417 kts | 199° |
| 2026-04-21 10:41 | 49.13408 | 44.90941 | 32944 ft | 417 kts | 199° |
| 2026-04-21 10:41 | 49.07811 | 44.88571 | 32947 ft | 417 kts | 199° |
| 2026-04-21 10:42 | 49.02212 | 44.86205 | 32947 ft | 417 kts | 199° |
| 2026-04-21 10:42 | 48.96652 | 44.83861 | 32949 ft | 417 kts | 199° |
| 2026-04-21 10:43 | 48.91033 | 44.81497 | 32950 ft | 418 kts | 199° |
| 2026-04-21 10:43 | 48.85451 | 44.79154 | 32952 ft | 418 kts | 199° |
| 2026-04-21 10:44 | 48.79884 | 44.76609 | 32957 ft | 416 kts | 202° |
| 2026-04-21 10:44 | 48.74383 | 44.73772 | 32955 ft | 417 kts | 202° |
| 2026-04-21 10:45 | 48.68701 | 44.72275 | 32975 ft | 429 kts | 179° |
| 2026-04-21 10:45 | 48.65762 | 44.73270 | 32949 ft | 440 kts | 165° |
| 2026-04-21 10:45 | 48.63006 | 44.75436 | 32967 ft | 451 kts | 151° |
| 2026-04-21 10:45 | 48.60641 | 44.78633 | 32942 ft | 465 kts | 134° |
| 2026-04-21 10:46 | 48.58829 | 44.82728 | 32982 ft | 471 kts | 127° |
| 2026-04-21 10:46 | 48.55532 | 44.91263 | 32958 ft | 473 kts | 126° |
| 2026-04-21 10:47 | 48.52203 | 44.99818 | 32948 ft | 472 kts | 127° |
| 2026-04-21 10:47 | 48.48830 | 45.08249 | 32948 ft | 471 kts | 127° |
| 2026-04-21 10:48 | 48.45424 | 45.16700 | 32951 ft | 471 kts | 127° |
| 2026-04-21 10:48 | 48.43560 | 45.20706 | 32920 ft | 460 kts | 141° |
| 2026-04-21 10:48 | 48.41048 | 45.23522 | 33023 ft | 443 kts | 160° |
| 2026-04-21 10:48 | 48.38214 | 45.25120 | 33298 ft | 430 kts | 173° |
| 2026-04-21 10:49 | 48.35283 | 45.25803 | 33574 ft | 421 kts | 182° |
| 2026-04-21 10:49 | 48.32413 | 45.25697 | 33727 ft | 415 kts | 194° |
| 2026-04-21 10:49 | 48.29627 | 45.24621 | 33830 ft | 413 kts | 200° |
| 2026-04-21 10:49 | 48.26883 | 45.23276 | 33960 ft | 414 kts | 201° |
| 2026-04-21 10:50 | 48.25080 | 45.22353 | 34038 ft | 414 kts | 201° |
| 2026-04-21 10:50 | 48.21413 | 45.20486 | 34184 ft | 416 kts | 201° |
| 2026-04-21 10:50 | 48.18659 | 45.19118 | 34345 ft | 416 kts | 201° |
| 2026-04-21 10:50 | 48.15942 | 45.17794 | 34485 ft | 416 kts | 200° |
| 2026-04-21 10:51 | 48.13184 | 45.16465 | 34611 ft | 416 kts | 200° |
| 2026-04-21 10:51 | 48.10421 | 45.15138 | 34744 ft | 417 kts | 200° |
| 2026-04-21 10:51 | 48.07661 | 45.13814 | 34873 ft | 416 kts | 200° |
| 2026-04-21 10:51 | 48.04825 | 45.12881 | 34913 ft | 422 kts | 187° |
| 2026-04-21 10:52 | 48.01872 | 45.13002 | 34959 ft | 426 kts | 176° |
| 2026-04-21 10:52 | 47.98957 | 45.13963 | 34948 ft | 434 kts | 165° |
| 2026-04-21 10:52 | 47.96186 | 45.15840 | 34982 ft | 439 kts | 159° |
| 2026-04-21 10:53 | 47.90760 | 45.20007 | 34968 ft | 442 kts | 158° |
| 2026-04-21 10:53 | 47.85274 | 45.24220 | 34961 ft | 444 kts | 158° |
| 2026-04-21 10:54 | 47.79758 | 45.28374 | 34964 ft | 444 kts | 159° |
| 2026-04-21 10:54 | 47.75148 | 45.31812 | 34964 ft | 445 kts | 159° |
| 2026-04-21 10:55 | 47.69604 | 45.35930 | 34964 ft | 445 kts | 159° |
| 2026-04-21 10:55 | 47.64069 | 45.40034 | 34959 ft | 444 kts | 159° |
| 2026-04-21 10:56 | 47.58553 | 45.44115 | 34957 ft | 442 kts | 159° |
| 2026-04-21 10:56 | 47.53086 | 45.48150 | 34960 ft | 441 kts | 159° |
| 2026-04-21 10:57 | 47.47591 | 45.52197 | 34963 ft | 439 kts | 159° |
| 2026-04-21 10:57 | 47.42118 | 45.56218 | 34963 ft | 438 kts | 159° |
| 2026-04-21 10:58 | 47.36688 | 45.60197 | 34962 ft | 437 kts | 159° |
| 2026-04-21 10:58 | 47.31252 | 45.64174 | 34965 ft | 436 kts | 159° |
| 2026-04-21 10:59 | 47.25873 | 45.68367 | 34953 ft | 442 kts | 150° |
| 2026-04-21 10:59 | 47.21420 | 45.74765 | 34963 ft | 458 kts | 131° |
| 2026-04-21 11:00 | 47.18121 | 45.82797 | 34958 ft | 463 kts | 127° |
| 2026-04-21 11:00 | 47.14940 | 45.91041 | 34969 ft | 464 kts | 126° |
| 2026-04-21 11:01 | 47.11722 | 45.99258 | 34976 ft | 464 kts | 127° |
| 2026-04-21 11:01 | 47.08470 | 46.07423 | 34976 ft | 464 kts | 127° |
| 2026-04-21 11:02 | 47.03533 | 46.19705 | 34978 ft | 465 kts | 127° |
| 2026-04-21 11:02 | 47.00253 | 46.27835 | 34975 ft | 465 kts | 127° |
| 2026-04-21 11:03 | 46.96943 | 46.36021 | 34980 ft | 465 kts | 127° |
| 2026-04-21 11:03 | 46.93639 | 46.44166 | 34974 ft | 465 kts | 128° |
| 2026-04-21 11:04 | 46.90353 | 46.52245 | 34980 ft | 465 kts | 128° |
| 2026-04-21 11:04 | 46.87038 | 46.60370 | 34979 ft | 464 kts | 128° |
| 2026-04-21 11:05 | 46.83719 | 46.68480 | 34977 ft | 464 kts | 128° |
| 2026-04-21 11:05 | 46.80423 | 46.76510 | 34978 ft | 463 kts | 128° |
| 2026-04-21 11:06 | 46.77098 | 46.84586 | 34983 ft | 463 kts | 128° |
| 2026-04-21 11:06 | 46.73798 | 46.92580 | 34990 ft | 463 kts | 128° |
| 2026-04-21 11:07 | 46.70473 | 47.00610 | 34986 ft | 463 kts | 128° |
| 2026-04-21 11:07 | 46.67147 | 47.08618 | 34990 ft | 463 kts | 128° |
| 2026-04-21 11:08 | 46.63802 | 47.16649 | 34993 ft | 463 kts | 128° |
| 2026-04-21 11:08 | 46.60448 | 47.24678 | 34993 ft | 463 kts | 128° |
| 2026-04-21 11:09 | 46.57116 | 47.32634 | 34991 ft | 463 kts | 128° |
| 2026-04-21 11:09 | 46.53755 | 47.40633 | 34989 ft | 464 kts | 128° |
| 2026-04-21 11:10 | 46.50381 | 47.48642 | 34999 ft | 464 kts | 128° |
| 2026-04-21 11:10 | 46.47006 | 47.56630 | 34999 ft | 463 kts | 128° |
| 2026-04-21 11:11 | 46.43649 | 47.64552 | 35000 ft | 463 kts | 127° |
| 2026-04-21 11:11 | 46.40273 | 47.72497 | 35008 ft | 462 kts | 127° |
| 2026-04-21 11:12 | 46.36900 | 47.80413 | 35015 ft | 461 kts | 127° |
| 2026-04-21 11:12 | 46.33529 | 47.88306 | 35015 ft | 460 kts | 128° |
| 2026-04-21 11:13 | 46.30082 | 47.96004 | 34998 ft | 451 kts | 139° |
| 2026-04-21 11:13 | 46.27731 | 47.98846 | 35036 ft | 434 kts | 155° |
| 2026-04-21 11:13 | 46.25021 | 48.00654 | 35016 ft | 425 kts | 168° |
| 2026-04-21 11:14 | 46.22155 | 48.01443 | 35023 ft | 415 kts | 180° |
| 2026-04-21 11:14 | 46.19273 | 48.01651 | 35027 ft | 414 kts | 181° |
| 2026-04-21 11:14 | 46.13501 | 48.01912 | 35017 ft | 415 kts | 182° |
| 2026-04-21 11:15 | 46.07738 | 48.02186 | 35009 ft | 417 kts | 181° |
| 2026-04-21 11:15 | 46.01919 | 48.02511 | 35011 ft | 419 kts | 181° |
| 2026-04-21 11:16 | 45.96078 | 48.02862 | 35006 ft | 420 kts | 181° |
| 2026-04-21 11:16 | 45.90273 | 48.03981 | 35003 ft | 429 kts | 167° |
| 2026-04-21 11:17 | 45.84763 | 48.07484 | 35012 ft | 437 kts | 157° |
| 2026-04-21 11:17 | 45.79384 | 48.11593 | 35007 ft | 438 kts | 157° |
| 2026-04-21 11:18 | 45.73986 | 48.15690 | 35003 ft | 439 kts | 157° |
| 2026-04-21 11:18 | 45.68576 | 48.19747 | 35006 ft | 439 kts | 157° |
| 2026-04-21 11:19 | 45.63197 | 48.23752 | 35005 ft | 438 kts | 157° |
| 2026-04-21 11:19 | 45.57784 | 48.27768 | 35005 ft | 437 kts | 157° |
| 2026-04-21 11:20 | 45.52388 | 48.31765 | 35013 ft | 436 kts | 157° |
| 2026-04-21 11:20 | 45.46999 | 48.35747 | 35011 ft | 435 kts | 157° |
| 2026-04-21 11:21 | 45.41618 | 48.39716 | 35016 ft | 435 kts | 157° |
| 2026-04-21 11:21 | 45.36250 | 48.43666 | 35016 ft | 434 kts | 157° |
| 2026-04-21 11:22 | 45.30913 | 48.47584 | 35016 ft | 434 kts | 157° |
| 2026-04-21 11:22 | 45.25553 | 48.51511 | 35019 ft | 433 kts | 157° |
| 2026-04-21 11:23 | 45.20189 | 48.55433 | 35022 ft | 433 kts | 157° |
| 2026-04-21 11:23 | 45.14821 | 48.59349 | 35014 ft | 434 kts | 157° |
| 2026-04-21 11:24 | 45.09442 | 48.63266 | 35024 ft | 434 kts | 158° |
| 2026-04-21 11:24 | 45.04093 | 48.67151 | 35022 ft | 435 kts | 158° |
| 2026-04-21 11:25 | 44.98704 | 48.71058 | 35017 ft | 436 kts | 158° |
| 2026-04-21 11:25 | 44.93305 | 48.74964 | 35018 ft | 436 kts | 158° |
| 2026-04-21 11:26 | 44.87894 | 48.78870 | 35021 ft | 437 kts | 158° |
| 2026-04-21 11:26 | 44.82484 | 48.82768 | 35022 ft | 437 kts | 158° |
| 2026-04-21 11:27 | 44.77090 | 48.86645 | 35019 ft | 437 kts | 158° |
| 2026-04-21 11:27 | 44.71676 | 48.90529 | 35015 ft | 437 kts | 158° |
| 2026-04-21 11:28 | 44.66257 | 48.94408 | 35018 ft | 437 kts | 158° |
| 2026-04-21 11:28 | 44.60833 | 48.98283 | 35015 ft | 436 kts | 158° |
| 2026-04-21 11:29 | 44.55430 | 49.02134 | 35012 ft | 435 kts | 158° |
| 2026-04-21 11:29 | 44.50032 | 49.05974 | 35084 ft | 435 kts | 158° |
| 2026-04-21 11:30 | 44.44665 | 49.09784 | 35021 ft | 435 kts | 158° |
| 2026-04-21 11:30 | 44.39268 | 49.13607 | 35011 ft | 433 kts | 158° |
| 2026-04-21 11:31 | 44.33894 | 49.17407 | 35008 ft | 432 kts | 158° |
| 2026-04-21 11:31 | 44.28543 | 49.21182 | 35008 ft | 430 kts | 158° |
| 2026-04-21 11:32 | 44.23209 | 49.24937 | 35015 ft | 429 kts | 158° |
| 2026-04-21 11:32 | 44.17918 | 49.28654 | 35010 ft | 428 kts | 158° |
| 2026-04-21 11:33 | 44.12601 | 49.32382 | 35016 ft | 428 kts | 158° |
| 2026-04-21 11:33 | 44.07276 | 49.36108 | 35021 ft | 428 kts | 158° |
| 2026-04-21 11:34 | 44.01942 | 49.39834 | 35018 ft | 429 kts | 158° |
| 2026-04-21 11:34 | 43.96611 | 49.43550 | 35012 ft | 430 kts | 158° |
| 2026-04-21 11:35 | 43.91037 | 49.46157 | 35029 ft | 418 kts | 181° |
| 2026-04-21 11:35 | 43.88166 | 49.45829 | 35010 ft | 413 kts | 195° |
| 2026-04-21 11:35 | 43.85463 | 49.44517 | 35021 ft | 411 kts | 207° |
| 2026-04-21 11:36 | 43.83037 | 49.42439 | 35012 ft | 412 kts | 220° |
| 2026-04-21 11:36 | 43.81032 | 49.39598 | 35030 ft | 413 kts | 228° |
| 2026-04-21 11:36 | 43.77404 | 49.33439 | 35018 ft | 416 kts | 230° |
| 2026-04-21 11:37 | 43.73778 | 49.27161 | 35010 ft | 418 kts | 229° |
| 2026-04-21 11:37 | 43.70101 | 49.20901 | 35022 ft | 420 kts | 229° |
| 2026-04-21 11:38 | 43.66409 | 49.14687 | 35014 ft | 421 kts | 229° |
| 2026-04-21 11:38 | 43.62671 | 49.08425 | 35008 ft | 422 kts | 229° |
| 2026-04-21 11:39 | 43.58933 | 49.02178 | 35021 ft | 422 kts | 229° |
| 2026-04-21 11:39 | 43.55216 | 48.95978 | 35014 ft | 422 kts | 229° |
| 2026-04-21 11:40 | 43.51474 | 48.89749 | 35009 ft | 421 kts | 229° |
| 2026-04-21 11:40 | 43.47734 | 48.83537 | 35018 ft | 421 kts | 229° |
| 2026-04-21 11:41 | 43.43986 | 48.77325 | 35013 ft | 420 kts | 229° |
| 2026-04-21 11:41 | 43.40751 | 48.71972 | 35022 ft | 420 kts | 229° |
| 2026-04-21 11:42 | 43.37007 | 48.65791 | 35014 ft | 420 kts | 228° |
| 2026-04-21 11:42 | 43.33285 | 48.59658 | 35017 ft | 420 kts | 228° |
| 2026-04-21 11:43 | 43.29558 | 48.53530 | 35018 ft | 420 kts | 228° |
| 2026-04-21 11:43 | 43.25804 | 48.47367 | 35017 ft | 421 kts | 228° |
| 2026-04-21 11:44 | 43.22043 | 48.41172 | 35016 ft | 424 kts | 230° |
| 2026-04-21 11:44 | 43.18403 | 48.34777 | 35012 ft | 425 kts | 231° |
| 2026-04-21 11:45 | 43.14801 | 48.28359 | 35015 ft | 425 kts | 231° |
| 2026-04-21 11:45 | 43.11207 | 48.22008 | 35011 ft | 424 kts | 230° |
| 2026-04-21 11:46 | 43.07575 | 48.15636 | 35012 ft | 424 kts | 230° |
| 2026-04-21 11:46 | 43.03935 | 48.09271 | 35012 ft | 424 kts | 230° |
| 2026-04-21 11:47 | 43.00293 | 48.02916 | 35006 ft | 425 kts | 230° |
| 2026-04-21 11:47 | 42.96648 | 47.96568 | 35003 ft | 425 kts | 230° |
| 2026-04-21 11:48 | 42.92992 | 47.90215 | 34998 ft | 426 kts | 230° |
| 2026-04-21 11:48 | 42.89323 | 47.83851 | 34992 ft | 428 kts | 230° |
| 2026-04-21 11:49 | 42.85636 | 47.77469 | 35000 ft | 428 kts | 230° |
| 2026-04-21 11:49 | 42.81964 | 47.71115 | 34990 ft | 429 kts | 232° |
| 2026-04-21 11:50 | 42.79132 | 47.63946 | 34996 ft | 433 kts | 247° |
| 2026-04-21 11:50 | 42.77647 | 47.55978 | 35001 ft | 435 kts | 256° |
| 2026-04-21 11:51 | 42.76430 | 47.47896 | 34997 ft | 436 kts | 256° |
| 2026-04-21 11:51 | 42.75180 | 47.39807 | 34997 ft | 437 kts | 255° |
| 2026-04-21 11:52 | 42.73893 | 47.31696 | 34992 ft | 438 kts | 255° |
| 2026-04-21 11:52 | 42.72593 | 47.23585 | 34974 ft | 439 kts | 255° |
| 2026-04-21 11:53 | 42.71295 | 47.15517 | 34965 ft | 439 kts | 255° |
| 2026-04-21 11:53 | 42.69988 | 47.07422 | 34963 ft | 438 kts | 255° |
| 2026-04-21 11:54 | 42.68675 | 46.99334 | 34962 ft | 438 kts | 255° |
| 2026-04-21 11:54 | 42.67158 | 46.91341 | 34946 ft | 436 kts | 252° |
| 2026-04-21 11:55 | 42.65449 | 46.83428 | 34949 ft | 436 kts | 252° |
| 2026-04-21 11:55 | 42.63739 | 46.75522 | 34935 ft | 436 kts | 252° |
| 2026-04-21 11:56 | 42.62051 | 46.67620 | 34925 ft | 436 kts | 252° |
| 2026-04-21 11:56 | 42.60380 | 46.59772 | 34934 ft | 436 kts | 252° |
| 2026-04-21 11:57 | 42.58693 | 46.51867 | 34923 ft | 436 kts | 252° |
| 2026-04-21 11:57 | 42.57001 | 46.43972 | 34919 ft | 436 kts | 252° |
| 2026-04-21 11:58 | 42.55301 | 46.36070 | 34907 ft | 436 kts | 252° |
| 2026-04-21 11:58 | 42.53594 | 46.28167 | 34912 ft | 436 kts | 252° |
| 2026-04-21 11:59 | 42.51883 | 46.20274 | 34922 ft | 436 kts | 252° |
| 2026-04-21 11:59 | 42.50178 | 46.12438 | 34923 ft | 436 kts | 252° |
| 2026-04-21 12:00 | 42.48454 | 46.04545 | 34914 ft | 436 kts | 252° |
| 2026-04-21 12:00 | 42.46725 | 45.96656 | 34925 ft | 436 kts | 252° |
| 2026-04-21 12:01 | 42.44992 | 45.88776 | 34925 ft | 437 kts | 252° |
| 2026-04-21 12:01 | 42.43266 | 45.80948 | 34938 ft | 437 kts | 252° |
| 2026-04-21 12:02 | 42.41097 | 45.68944 | 34954 ft | 438 kts | 257° |
| 2026-04-21 12:03 | 42.39934 | 45.60826 | 34949 ft | 439 kts | 257° |
| 2026-04-21 12:03 | 42.38762 | 45.52761 | 34958 ft | 439 kts | 257° |
| 2026-04-21 12:04 | 42.37552 | 45.44635 | 34967 ft | 439 kts | 257° |
| 2026-04-21 12:04 | 42.36329 | 45.36534 | 34966 ft | 439 kts | 257° |
| 2026-04-21 12:05 | 42.35107 | 45.28488 | 34976 ft | 439 kts | 257° |
| 2026-04-21 12:05 | 42.33872 | 45.20394 | 34978 ft | 440 kts | 257° |
| 2026-04-21 12:06 | 42.32628 | 45.12282 | 34973 ft | 440 kts | 257° |
| 2026-04-21 12:06 | 42.31380 | 45.04183 | 34969 ft | 439 kts | 257° |
| 2026-04-21 12:07 | 42.30138 | 44.96159 | 34972 ft | 439 kts | 257° |
| 2026-04-21 12:07 | 42.28883 | 44.88093 | 34972 ft | 437 kts | 257° |
| 2026-04-21 12:08 | 42.27628 | 44.80067 | 34972 ft | 435 kts | 257° |
| 2026-04-21 12:08 | 42.26371 | 44.72068 | 34970 ft | 435 kts | 257° |
| 2026-04-21 12:09 | 42.25117 | 44.64124 | 34965 ft | 435 kts | 257° |
| 2026-04-21 12:09 | 42.23850 | 44.56141 | 34972 ft | 434 kts | 257° |
| 2026-04-21 12:10 | 42.22579 | 44.48161 | 34975 ft | 435 kts | 257° |
| 2026-04-21 12:10 | 42.21299 | 44.40171 | 34965 ft | 435 kts | 257° |
| 2026-04-21 12:11 | 42.20021 | 44.32225 | 34973 ft | 435 kts | 257° |
| 2026-04-21 12:11 | 42.18731 | 44.24245 | 34968 ft | 435 kts | 257° |
| 2026-04-21 12:12 | 42.17434 | 44.16260 | 34964 ft | 435 kts | 257° |
| 2026-04-21 12:12 | 42.16144 | 44.08350 | 34969 ft | 435 kts | 257° |
| 2026-04-21 12:13 | 42.14837 | 44.00380 | 34969 ft | 434 kts | 257° |
| 2026-04-21 12:13 | 42.13536 | 43.92478 | 34965 ft | 435 kts | 257° |
| 2026-04-21 12:14 | 42.12219 | 43.84515 | 34958 ft | 435 kts | 257° |
| 2026-04-21 12:14 | 42.10905 | 43.76602 | 34960 ft | 435 kts | 257° |
| 2026-04-21 12:15 | 42.09577 | 43.68643 | 34953 ft | 435 kts | 257° |
| 2026-04-21 12:15 | 42.08101 | 43.60738 | 34945 ft | 435 kts | 253° |
| 2026-04-21 12:16 | 42.06323 | 43.53012 | 34955 ft | 435 kts | 252° |
| 2026-04-21 12:16 | 42.04500 | 43.45236 | 34954 ft | 435 kts | 252° |
| 2026-04-21 12:17 | 42.02706 | 43.37454 | 34948 ft | 435 kts | 253° |
| 2026-04-21 12:17 | 42.00933 | 43.29717 | 34945 ft | 435 kts | 253° |
| 2026-04-21 12:18 | 41.99147 | 43.21932 | 34952 ft | 436 kts | 253° |
| 2026-04-21 12:18 | 41.97351 | 43.14134 | 34955 ft | 435 kts | 253° |
| 2026-04-21 12:19 | 41.95556 | 43.06371 | 34954 ft | 435 kts | 253° |
| 2026-04-21 12:19 | 41.93765 | 42.98653 | 34946 ft | 434 kts | 253° |
| 2026-04-21 12:20 | 41.91959 | 42.90891 | 34961 ft | 434 kts | 253° |
| 2026-04-21 12:20 | 41.90157 | 42.83185 | 34945 ft | 434 kts | 253° |
| 2026-04-21 12:21 | 41.88300 | 42.75449 | 34954 ft | 434 kts | 252° |
| 2026-04-21 12:21 | 41.86438 | 42.67783 | 34950 ft | 434 kts | 252° |
| 2026-04-21 12:22 | 41.84567 | 42.60084 | 34958 ft | 434 kts | 252° |
| 2026-04-21 12:22 | 41.82691 | 42.52376 | 34952 ft | 434 kts | 252° |
| 2026-04-21 12:23 | 41.81131 | 42.45979 | 34954 ft | 434 kts | 252° |
| 2026-04-21 12:23 | 41.79250 | 42.38291 | 34955 ft | 434 kts | 252° |
| 2026-04-21 12:24 | 41.77056 | 42.29356 | 34963 ft | 434 kts | 252° |
| 2026-04-21 12:24 | 41.75484 | 42.22976 | 34951 ft | 434 kts | 252° |
| 2026-04-21 12:25 | 41.73591 | 42.15306 | 34957 ft | 432 kts | 252° |
| 2026-04-21 12:25 | 41.71696 | 42.07663 | 34962 ft | 432 kts | 252° |
| 2026-04-21 12:26 | 41.69810 | 42.00070 | 34978 ft | 432 kts | 252° |
| 2026-04-21 12:26 | 41.67909 | 41.92433 | 34990 ft | 432 kts | 252° |
| 2026-04-21 12:27 | 41.66000 | 41.84787 | 34978 ft | 433 kts | 252° |
| 2026-04-21 12:27 | 41.64096 | 41.77187 | 34996 ft | 433 kts | 252° |
| 2026-04-21 12:28 | 41.62175 | 41.69534 | 34991 ft | 433 kts | 252° |
| 2026-04-21 12:28 | 41.60257 | 41.61935 | 34992 ft | 434 kts | 252° |
| 2026-04-21 12:29 | 41.57969 | 41.54440 | 34997 ft | 435 kts | 248° |
| 2026-04-21 12:29 | 41.55548 | 41.47049 | 34992 ft | 434 kts | 248° |
| 2026-04-21 12:30 | 41.53154 | 41.39625 | 34990 ft | 434 kts | 248° |
| 2026-04-21 12:30 | 41.50750 | 41.32253 | 34990 ft | 434 kts | 248° |
| 2026-04-21 12:31 | 41.48332 | 41.24853 | 34986 ft | 434 kts | 248° |
| 2026-04-21 12:31 | 41.45936 | 41.17517 | 34985 ft | 434 kts | 248° |
| 2026-04-21 12:32 | 41.43515 | 41.10129 | 34982 ft | 434 kts | 248° |
| 2026-04-21 12:32 | 41.41087 | 41.02765 | 34983 ft | 434 kts | 248° |
| 2026-04-21 12:33 | 41.38651 | 40.95399 | 34985 ft | 434 kts | 248° |
| 2026-04-21 12:33 | 41.36223 | 40.88073 | 34983 ft | 434 kts | 248° |
| 2026-04-21 12:34 | 41.33780 | 40.80715 | 34984 ft | 434 kts | 248° |
| 2026-04-21 12:34 | 41.31343 | 40.73396 | 34982 ft | 434 kts | 248° |
| 2026-04-21 12:35 | 41.28890 | 40.66048 | 34980 ft | 434 kts | 248° |
| 2026-04-21 12:35 | 41.26428 | 40.58693 | 34982 ft | 435 kts | 248° |
| 2026-04-21 12:36 | 41.23978 | 40.51389 | 34979 ft | 435 kts | 248° |
| 2026-04-21 12:36 | 41.21505 | 40.44038 | 34980 ft | 435 kts | 248° |
| 2026-04-21 12:37 | 41.19031 | 40.36702 | 34976 ft | 435 kts | 248° |
| 2026-04-21 12:37 | 41.16566 | 40.29410 | 34976 ft | 435 kts | 248° |
| 2026-04-21 12:38 | 41.14083 | 40.22075 | 34976 ft | 435 kts | 248° |
| 2026-04-21 12:38 | 41.11589 | 40.14735 | 34980 ft | 436 kts | 248° |
| 2026-04-21 12:39 | 41.09085 | 40.07404 | 34982 ft | 436 kts | 248° |
| 2026-04-21 12:39 | 41.06590 | 40.00117 | 34986 ft | 436 kts | 248° |
| 2026-04-21 12:40 | 41.04092 | 39.92831 | 34992 ft | 435 kts | 248° |
| 2026-04-21 12:40 | 41.01574 | 39.85503 | 34993 ft | 435 kts | 248° |
| 2026-04-21 12:41 | 40.99052 | 39.78215 | 34994 ft | 436 kts | 247° |
| 2026-04-21 12:41 | 40.96291 | 39.71061 | 34993 ft | 437 kts | 244° |
| 2026-04-21 12:42 | 40.93446 | 39.63991 | 34994 ft | 436 kts | 244° |
| 2026-04-21 12:42 | 40.90625 | 39.56924 | 34988 ft | 436 kts | 245° |
| 2026-04-21 12:43 | 40.87804 | 39.49802 | 34983 ft | 436 kts | 245° |
| 2026-04-21 12:43 | 40.84990 | 39.42693 | 34961 ft | 436 kts | 245° |
| 2026-04-21 12:44 | 40.82183 | 39.35621 | 34960 ft | 436 kts | 245° |
| 2026-04-21 12:44 | 40.79360 | 39.28524 | 34952 ft | 436 kts | 245° |
| 2026-04-21 12:45 | 40.76548 | 39.21475 | 34950 ft | 435 kts | 245° |
| 2026-04-21 12:45 | 40.73728 | 39.14422 | 34946 ft | 434 kts | 244° |
| 2026-04-21 12:46 | 40.70904 | 39.07375 | 34951 ft | 434 kts | 245° |
| 2026-04-21 12:46 | 40.68085 | 39.00355 | 34958 ft | 433 kts | 244° |
| 2026-04-21 12:47 | 40.65282 | 38.93391 | 34957 ft | 432 kts | 244° |
| 2026-04-21 12:47 | 40.62455 | 38.86399 | 34962 ft | 431 kts | 244° |
| 2026-04-21 12:48 | 40.59623 | 38.79438 | 34972 ft | 431 kts | 244° |
| 2026-04-21 12:48 | 40.56790 | 38.72486 | 34980 ft | 431 kts | 244° |
| 2026-04-21 12:49 | 40.53956 | 38.65539 | 34959 ft | 431 kts | 244° |
| 2026-04-21 12:49 | 40.51125 | 38.58620 | 34958 ft | 432 kts | 244° |
| 2026-04-21 12:50 | 40.48216 | 38.51700 | 34957 ft | 432 kts | 243° |
| 2026-04-21 12:50 | 40.45260 | 38.44859 | 34954 ft | 432 kts | 243° |
| 2026-04-21 12:51 | 40.42299 | 38.37991 | 34953 ft | 431 kts | 243° |
| 2026-04-21 12:51 | 40.39361 | 38.31168 | 34943 ft | 431 kts | 243° |
| 2026-04-21 12:52 | 40.36456 | 38.24270 | 34930 ft | 431 kts | 245° |
| 2026-04-21 12:52 | 40.33696 | 38.17301 | 34947 ft | 430 kts | 245° |
| 2026-04-21 12:53 | 40.30893 | 38.10436 | 34935 ft | 430 kts | 244° |
| 2026-04-21 12:53 | 40.27980 | 38.03590 | 34921 ft | 430 kts | 243° |
| 2026-04-21 12:54 | 40.25059 | 37.96740 | 34945 ft | 430 kts | 243° |
| 2026-04-21 12:54 | 40.22147 | 37.89892 | 34940 ft | 430 kts | 244° |
| 2026-04-21 12:55 | 40.19257 | 37.83096 | 34934 ft | 429 kts | 244° |
| 2026-04-21 12:55 | 40.16344 | 37.76261 | 34937 ft | 429 kts | 243° |
| 2026-04-21 12:56 | 40.13432 | 37.69443 | 34930 ft | 429 kts | 243° |
| 2026-04-21 12:56 | 40.10529 | 37.62658 | 34928 ft | 429 kts | 243° |
| 2026-04-21 12:57 | 40.07601 | 37.55834 | 34931 ft | 429 kts | 243° |
| 2026-04-21 12:57 | 40.04706 | 37.49061 | 34934 ft | 428 kts | 243° |
| 2026-04-21 12:58 | 40.01803 | 37.42272 | 34939 ft | 428 kts | 243° |
| 2026-04-21 12:58 | 39.98916 | 37.35534 | 34929 ft | 428 kts | 243° |
| 2026-04-21 12:59 | 39.96018 | 37.28791 | 34942 ft | 427 kts | 243° |
| 2026-04-21 12:59 | 39.93109 | 37.22036 | 34961 ft | 427 kts | 243° |
| 2026-04-21 13:00 | 39.90200 | 37.15294 | 34972 ft | 426 kts | 243° |
| 2026-04-21 13:00 | 39.87282 | 37.08546 | 34998 ft | 426 kts | 243° |
| 2026-04-21 13:01 | 39.84384 | 37.01858 | 35029 ft | 426 kts | 243° |
| 2026-04-21 13:01 | 39.81468 | 36.95142 | 35022 ft | 426 kts | 243° |
| 2026-04-21 13:02 | 39.78372 | 36.88549 | 35014 ft | 429 kts | 235° |
| 2026-04-21 13:02 | 39.72253 | 36.80038 | 35018 ft | 431 kts | 230° |
| 2026-04-21 13:03 | 39.68107 | 36.74408 | 34994 ft | 431 kts | 230° |
| 2026-04-21 13:03 | 39.63984 | 36.68762 | 34978 ft | 431 kts | 230° |
| 2026-04-21 13:04 | 39.59887 | 36.63142 | 34962 ft | 431 kts | 230° |
| 2026-04-21 13:04 | 39.55763 | 36.57495 | 34948 ft | 430 kts | 230° |
| 2026-04-21 13:05 | 39.51641 | 36.51864 | 34963 ft | 430 kts | 230° |
| 2026-04-21 13:05 | 39.47511 | 36.46238 | 34958 ft | 431 kts | 230° |
| 2026-04-21 13:06 | 39.43394 | 36.40650 | 34956 ft | 431 kts | 230° |
| 2026-04-21 13:06 | 39.39252 | 36.35034 | 34953 ft | 431 kts | 230° |
| 2026-04-21 13:07 | 39.35104 | 36.29420 | 34960 ft | 431 kts | 230° |
| 2026-04-21 13:07 | 39.30962 | 36.23822 | 34963 ft | 430 kts | 230° |
| 2026-04-21 13:08 | 39.26848 | 36.18273 | 34969 ft | 430 kts | 230° |
| 2026-04-21 13:08 | 39.22711 | 36.12701 | 34964 ft | 430 kts | 230° |
| 2026-04-21 13:09 | 39.18570 | 36.07132 | 34974 ft | 429 kts | 230° |
| 2026-04-21 13:09 | 39.14449 | 36.01621 | 34979 ft | 430 kts | 229° |
| 2026-04-21 13:10 | 39.10148 | 35.96233 | 34979 ft | 431 kts | 228° |
| 2026-04-21 13:10 | 39.05826 | 35.90914 | 34988 ft | 431 kts | 228° |
| 2026-04-21 13:11 | 39.01514 | 35.85564 | 34980 ft | 431 kts | 228° |
| 2026-04-21 13:11 | 38.97201 | 35.80200 | 34993 ft | 430 kts | 228° |
| 2026-04-21 13:12 | 38.92930 | 35.74880 | 34990 ft | 430 kts | 229° |
| 2026-04-21 13:12 | 38.88701 | 35.69432 | 34994 ft | 429 kts | 230° |
| 2026-04-21 13:13 | 38.85207 | 35.64899 | 34993 ft | 429 kts | 229° |
| 2026-04-21 13:13 | 38.81015 | 35.59485 | 34990 ft | 429 kts | 229° |
| 2026-04-21 13:14 | 38.76786 | 35.54049 | 34992 ft | 429 kts | 229° |
| 2026-04-21 13:14 | 38.72555 | 35.48624 | 34993 ft | 429 kts | 229° |
| 2026-04-21 13:15 | 38.68354 | 35.43247 | 34993 ft | 430 kts | 229° |
| 2026-04-21 13:15 | 38.64128 | 35.37846 | 34993 ft | 430 kts | 229° |
| 2026-04-21 13:16 | 38.59892 | 35.32441 | 34998 ft | 430 kts | 229° |
| 2026-04-21 13:16 | 38.55640 | 35.27025 | 34996 ft | 431 kts | 229° |
| 2026-04-21 13:17 | 38.51371 | 35.21703 | 34986 ft | 433 kts | 226° |
| 2026-04-21 13:17 | 38.46746 | 35.16730 | 34985 ft | 434 kts | 224° |
| 2026-04-21 13:18 | 38.42081 | 35.11817 | 34988 ft | 433 kts | 224° |
| 2026-04-21 13:18 | 38.37493 | 35.06904 | 34981 ft | 432 kts | 225° |
| 2026-04-21 13:19 | 38.33081 | 35.01708 | 34988 ft | 429 kts | 229° |
| 2026-04-21 13:19 | 38.28786 | 34.96469 | 34992 ft | 429 kts | 228° |
| 2026-04-21 13:20 | 38.24427 | 34.91235 | 34982 ft | 430 kts | 228° |
| 2026-04-21 13:20 | 38.20075 | 34.86008 | 34989 ft | 430 kts | 228° |
| 2026-04-21 13:21 | 38.15747 | 34.80811 | 34984 ft | 431 kts | 228° |
| 2026-04-21 13:21 | 38.11375 | 34.75571 | 34988 ft | 431 kts | 228° |
| 2026-04-21 13:22 | 38.07007 | 34.70344 | 34986 ft | 432 kts | 228° |
| 2026-04-21 13:22 | 38.02625 | 34.65110 | 34976 ft | 432 kts | 228° |
| 2026-04-21 13:23 | 37.98265 | 34.59911 | 34971 ft | 432 kts | 228° |
| 2026-04-21 13:23 | 37.93869 | 34.54677 | 34973 ft | 432 kts | 228° |
| 2026-04-21 13:24 | 37.89499 | 34.49484 | 34963 ft | 433 kts | 228° |
| 2026-04-21 13:24 | 37.85095 | 34.44253 | 34964 ft | 433 kts | 228° |
| 2026-04-21 13:25 | 37.80690 | 34.39023 | 34962 ft | 433 kts | 228° |
| 2026-04-21 13:25 | 37.76308 | 34.33828 | 34965 ft | 434 kts | 228° |
| 2026-04-21 13:26 | 37.71896 | 34.28607 | 34976 ft | 434 kts | 228° |
| 2026-04-21 13:26 | 37.67511 | 34.23427 | 34976 ft | 434 kts | 228° |
| 2026-04-21 13:27 | 37.63093 | 34.18216 | 34986 ft | 434 kts | 227° |
| 2026-04-21 13:27 | 37.58669 | 34.13008 | 34990 ft | 435 kts | 228° |
| 2026-04-21 13:28 | 37.54260 | 34.07825 | 34994 ft | 435 kts | 228° |
| 2026-04-21 13:28 | 37.49830 | 34.02626 | 34995 ft | 435 kts | 228° |
| 2026-04-21 13:29 | 37.45442 | 33.97484 | 34994 ft | 436 kts | 227° |
| 2026-04-21 13:29 | 37.40971 | 33.92264 | 34993 ft | 436 kts | 227° |
| 2026-04-21 13:30 | 37.36517 | 33.87082 | 34997 ft | 436 kts | 227° |
| 2026-04-21 13:30 | 37.28892 | 33.78223 | 34980 ft | 437 kts | 227° |
| 2026-04-21 13:31 | 37.20002 | 33.67923 | 34991 ft | 437 kts | 227° |
| 2026-04-21 13:31 | 37.11051 | 33.57587 | 34992 ft | 437 kts | 227° |
| 2026-04-21 13:32 | 37.02134 | 33.47325 | 34987 ft | 437 kts | 227° |
| 2026-04-21 13:32 | 36.89395 | 33.32687 | 34964 ft | 436 kts | 231° |
| 2026-04-21 13:33 | 36.86709 | 33.26321 | 34984 ft | 417 kts | 261° |
| 2026-04-21 13:33 | 36.86504 | 33.19161 | 34988 ft | 411 kts | 275° |
| 2026-04-21 13:33 | 36.87084 | 33.04867 | 34961 ft | 413 kts | 275° |
| 2026-04-21 13:34 | 36.86540 | 32.97683 | 34970 ft | 418 kts | 259° |
| 2026-04-21 13:34 | 36.85101 | 32.90737 | 34963 ft | 418 kts | 259° |
| 2026-04-21 13:34 | 36.82263 | 32.76627 | 34970 ft | 419 kts | 260° |
| 2026-04-21 13:35 | 36.79433 | 32.62454 | 34976 ft | 420 kts | 260° |
| 2026-04-21 13:35 | 36.76602 | 32.48372 | 34981 ft | 421 kts | 260° |
| 2026-04-21 13:36 | 36.73734 | 32.34203 | 34982 ft | 421 kts | 260° |
| 2026-04-21 13:36 | 36.70850 | 32.20051 | 34999 ft | 420 kts | 260° |
| 2026-04-21 13:37 | 36.67961 | 32.05962 | 34998 ft | 421 kts | 259° |
| 2026-04-21 13:37 | 36.65049 | 31.91855 | 34986 ft | 419 kts | 259° |
| 2026-04-21 13:38 | 36.62133 | 31.77825 | 35005 ft | 417 kts | 259° |
| 2026-04-21 13:38 | 36.59227 | 31.63918 | 34993 ft | 416 kts | 259° |
| 2026-04-21 13:39 | 36.56294 | 31.49981 | 34971 ft | 414 kts | 259° |
| 2026-04-21 13:39 | 36.53362 | 31.36129 | 34977 ft | 413 kts | 259° |
| 2026-04-21 13:40 | 36.50439 | 31.22406 | 34970 ft | 412 kts | 259° |
| 2026-04-21 13:40 | 36.47494 | 31.08660 | 34969 ft | 411 kts | 259° |
| 2026-04-21 13:41 | 36.44534 | 30.94926 | 34962 ft | 411 kts | 258° |
| 2026-04-21 13:41 | 36.42727 | 30.88189 | 34937 ft | 419 kts | 243° |
| 2026-04-21 13:41 | 36.38432 | 30.83147 | 34965 ft | 440 kts | 214° |
| 2026-04-21 13:42 | 36.32402 | 30.81316 | 34970 ft | 464 kts | 185° |
| 2026-04-21 13:42 | 36.25929 | 30.81598 | 34980 ft | 466 kts | 183° |
| 2026-04-21 13:42 | 36.12933 | 30.82161 | 34965 ft | 467 kts | 184° |
| 2026-04-21 13:43 | 35.99920 | 30.82639 | 34975 ft | 469 kts | 183° |
| 2026-04-21 13:43 | 35.86941 | 30.83475 | 34980 ft | 470 kts | 183° |
| 2026-04-21 13:44 | 35.73852 | 30.84268 | 34979 ft | 470 kts | 183° |
| 2026-04-21 13:44 | 35.60845 | 30.85046 | 34979 ft | 470 kts | 184° |
| 2026-04-21 13:45 | 35.47778 | 30.85481 | 34985 ft | 469 kts | 185° |
| 2026-04-21 13:45 | 35.34709 | 30.85905 | 34985 ft | 469 kts | 184° |
| 2026-04-21 13:46 | 35.21659 | 30.86344 | 34984 ft | 468 kts | 184° |
| 2026-04-21 13:46 | 35.08707 | 30.86775 | 34991 ft | 468 kts | 184° |
| 2026-04-21 13:47 | 34.95695 | 30.87208 | 34996 ft | 467 kts | 185° |
| 2026-04-21 13:47 | 34.82672 | 30.87640 | 34990 ft | 466 kts | 185° |
| 2026-04-21 13:48 | 34.69780 | 30.88066 | 34996 ft | 465 kts | 185° |
| 2026-04-21 13:48 | 34.56804 | 30.88541 | 34998 ft | 465 kts | 184° |
| 2026-04-21 13:49 | 34.43947 | 30.89204 | 35005 ft | 464 kts | 184° |
| 2026-04-21 13:49 | 34.31022 | 30.89838 | 35006 ft | 464 kts | 184° |
| 2026-04-21 13:50 | 34.18093 | 30.90501 | 35005 ft | 463 kts | 184° |
| 2026-04-21 13:50 | 34.05216 | 30.91228 | 35016 ft | 463 kts | 184° |
| 2026-04-21 13:51 | 33.92438 | 30.91916 | 35011 ft | 462 kts | 184° |
| 2026-04-21 13:51 | 33.79597 | 30.92383 | 35013 ft | 461 kts | 185° |
| 2026-04-21 13:52 | 33.66768 | 30.92861 | 35021 ft | 460 kts | 185° |
| 2026-04-21 13:52 | 33.54046 | 30.93343 | 35020 ft | 460 kts | 185° |
| 2026-04-21 13:53 | 33.41237 | 30.93827 | 35018 ft | 460 kts | 185° |
| 2026-04-21 13:53 | 33.28417 | 30.94309 | 35022 ft | 460 kts | 185° |
| 2026-04-21 13:54 | 33.15622 | 30.94789 | 35026 ft | 460 kts | 185° |
| 2026-04-21 13:54 | 33.02817 | 30.95681 | 35025 ft | 464 kts | 181° |
| 2026-04-21 13:55 | 32.90025 | 30.97230 | 35027 ft | 463 kts | 181° |
| 2026-04-21 13:55 | 32.77192 | 30.98673 | 35029 ft | 463 kts | 182° |
| 2026-04-21 13:56 | 32.64368 | 31.00097 | 35030 ft | 462 kts | 182° |
| 2026-04-21 13:56 | 32.51557 | 31.01519 | 35036 ft | 462 kts | 182° |
| 2026-04-21 13:57 | 32.38738 | 31.02938 | 35032 ft | 461 kts | 182° |
| 2026-04-21 13:57 | 32.26021 | 31.04342 | 35033 ft | 461 kts | 182° |
| 2026-04-21 13:58 | 32.13256 | 31.05747 | 35029 ft | 460 kts | 182° |
| 2026-04-21 13:58 | 32.00495 | 31.07145 | 35032 ft | 460 kts | 182° |
| 2026-04-21 13:59 | 31.87736 | 31.08516 | 35046 ft | 459 kts | 182° |
| 2026-04-21 13:59 | 31.74991 | 31.09884 | 35039 ft | 459 kts | 182° |
| 2026-04-21 14:00 | 31.62342 | 31.11239 | 35031 ft | 459 kts | 182° |
| 2026-04-21 14:00 | 31.49630 | 31.12747 | 35039 ft | 462 kts | 179° |
| 2026-04-21 14:01 | 31.36917 | 31.15243 | 35030 ft | 463 kts | 178° |
| 2026-04-21 14:01 | 31.24189 | 31.17629 | 35030 ft | 462 kts | 179° |
| 2026-04-21 14:02 | 31.11550 | 31.19985 | 35019 ft | 462 kts | 179° |
| 2026-04-21 14:03 | 30.94632 | 31.23130 | 35014 ft | 461 kts | 179° |
| 2026-04-21 14:03 | 30.82401 | 31.25397 | 35007 ft | 461 kts | 179° |
| 2026-04-21 14:04 | 30.69724 | 31.27741 | 35004 ft | 461 kts | 179° |
| 2026-04-21 14:04 | 30.57086 | 31.30071 | 35004 ft | 461 kts | 179° |
| 2026-04-21 14:05 | 30.44462 | 31.32393 | 35001 ft | 461 kts | 179° |
| 2026-04-21 14:05 | 30.31799 | 31.34716 | 34995 ft | 460 kts | 180° |
| 2026-04-21 14:06 | 30.19143 | 31.37032 | 34991 ft | 460 kts | 180° |
| 2026-04-21 14:06 | 30.06652 | 31.40964 | 34994 ft | 486 kts | 157° |
| 2026-04-21 14:07 | 29.96369 | 31.49718 | 34992 ft | 495 kts | 150° |
| 2026-04-21 14:07 | 29.90872 | 31.54501 | 35001 ft | 494 kts | 151° |
| 2026-04-21 14:08 | 29.85346 | 31.59232 | 35025 ft | 493 kts | 152° |
| 2026-04-21 14:08 | 29.79809 | 31.63936 | 35030 ft | 493 kts | 152° |
| 2026-04-21 14:09 | 29.74281 | 31.68624 | 35036 ft | 493 kts | 152° |
| 2026-04-21 14:09 | 29.68779 | 31.73287 | 35032 ft | 493 kts | 152° |
| 2026-04-21 14:10 | 29.63245 | 31.77973 | 35029 ft | 493 kts | 152° |
| 2026-04-21 14:10 | 29.57721 | 31.82646 | 35032 ft | 493 kts | 152° |
| 2026-04-21 14:11 | 29.52206 | 31.87303 | 35027 ft | 493 kts | 152° |
| 2026-04-21 14:11 | 29.46678 | 31.91965 | 35027 ft | 494 kts | 152° |
| 2026-04-21 14:12 | 29.41136 | 31.96632 | 35032 ft | 494 kts | 152° |
| 2026-04-21 14:12 | 29.35623 | 32.01268 | 35030 ft | 494 kts | 152° |
| 2026-04-21 14:13 | 29.30070 | 32.05931 | 35027 ft | 495 kts | 153° |
| 2026-04-21 14:13 | 29.24505 | 32.10598 | 35023 ft | 495 kts | 153° |
| 2026-04-21 14:14 | 29.18942 | 32.15257 | 35016 ft | 495 kts | 153° |
| 2026-04-21 14:14 | 29.11609 | 32.21389 | 35013 ft | 495 kts | 153° |
| 2026-04-21 14:15 | 29.00550 | 32.30617 | 34994 ft | 495 kts | 153° |
| 2026-04-21 14:15 | 28.89406 | 32.39889 | 35002 ft | 494 kts | 153° |
| 2026-04-21 14:16 | 28.78245 | 32.49150 | 34979 ft | 494 kts | 153° |
| 2026-04-21 14:16 | 28.67188 | 32.58301 | 34988 ft | 493 kts | 153° |
| 2026-04-21 14:17 | 28.56074 | 32.67473 | 34968 ft | 493 kts | 153° |
| 2026-04-21 14:17 | 28.50500 | 32.72061 | 34459 ft | 497 kts | 153° |
| 2026-04-21 14:17 | 28.44898 | 32.76668 | 33073 ft | 497 kts | 152° |
| 2026-04-21 14:17 | 28.39339 | 32.81238 | 31692 ft | 497 kts | 152° |
| 2026-04-21 14:18 | 28.33766 | 32.85817 | 30689 ft | 489 kts | 152° |
| 2026-04-21 14:18 | 28.28282 | 32.90315 | 29674 ft | 481 kts | 152° |
| 2026-04-21 14:18 | 28.22883 | 32.94732 | 28580 ft | 473 kts | 152° |
| 2026-04-21 14:18 | 28.17645 | 32.99012 | 27583 ft | 466 kts | 152° |
| 2026-04-21 14:19 | 28.12426 | 33.03271 | 26613 ft | 458 kts | 151° |
| 2026-04-21 14:19 | 28.07273 | 33.07471 | 25657 ft | 452 kts | 151° |
| 2026-04-21 14:19 | 28.02182 | 33.11616 | 24732 ft | 446 kts | 151° |
| 2026-04-21 14:19 | 27.97172 | 33.15690 | 23861 ft | 440 kts | 150° |
| 2026-04-21 14:20 | 27.92222 | 33.19711 | 22862 ft | 435 kts | 150° |
| 2026-04-21 14:20 | 27.87372 | 33.23645 | 21874 ft | 430 kts | 150° |
| 2026-04-21 14:20 | 27.82545 | 33.27558 | 20900 ft | 424 kts | 149° |
| 2026-04-21 14:20 | 27.77765 | 33.31428 | 19968 ft | 419 kts | 149° |
| 2026-04-21 14:21 | 27.75040 | 33.33632 | 19437 ft | 416 kts | 148° |
| 2026-04-21 14:21 | 27.72694 | 33.35528 | 18955 ft | 415 kts | 148° |
| 2026-04-21 14:21 | 27.70350 | 33.37423 | 18489 ft | 413 kts | 148° |
| 2026-04-21 14:21 | 27.68042 | 33.39287 | 17986 ft | 411 kts | 148° |
| 2026-04-21 14:22 | 27.65714 | 33.41165 | 17480 ft | 409 kts | 147° |
| 2026-04-21 14:22 | 27.63421 | 33.43017 | 16994 ft | 399 kts | 147° |
| 2026-04-21 14:22 | 27.61197 | 33.44813 | 16542 ft | 388 kts | 147° |
| 2026-04-21 14:22 | 27.59030 | 33.46559 | 16114 ft | 386 kts | 147° |
| 2026-04-21 14:23 | 27.56842 | 33.48321 | 15684 ft | 385 kts | 147° |
| 2026-04-21 14:23 | 27.54669 | 33.50071 | 15247 ft | 383 kts | 147° |
| 2026-04-21 14:23 | 27.52492 | 33.51811 | 14807 ft | 382 kts | 148° |
| 2026-04-21 14:23 | 27.50193 | 33.53268 | 14387 ft | 377 kts | 158° |
| 2026-04-21 14:24 | 27.47785 | 33.54431 | 13980 ft | 375 kts | 160° |
| 2026-04-21 14:24 | 27.45399 | 33.55549 | 13520 ft | 375 kts | 160° |
| 2026-04-21 14:24 | 27.42995 | 33.56685 | 13042 ft | 371 kts | 159° |
| 2026-04-21 14:24 | 27.40647 | 33.57815 | 12605 ft | 366 kts | 159° |
| 2026-04-21 14:25 | 27.38306 | 33.58950 | 12154 ft | 365 kts | 158° |
| 2026-04-21 14:25 | 27.35970 | 33.60083 | 11723 ft | 364 kts | 159° |
| 2026-04-21 14:25 | 27.33583 | 33.61019 | 11278 ft | 360 kts | 166° |
| 2026-04-21 14:25 | 27.31166 | 33.61733 | 10847 ft | 359 kts | 168° |
| 2026-04-21 14:26 | 27.28761 | 33.62390 | 10472 ft | 356 kts | 168° |
| 2026-04-21 14:26 | 27.26419 | 33.63041 | 10340 ft | 337 kts | 167° |
| 2026-04-21 14:26 | 27.24195 | 33.63681 | 10198 ft | 322 kts | 167° |
| 2026-04-21 14:26 | 27.22072 | 33.64307 | 10068 ft | 307 kts | 166° |
| 2026-04-21 14:27 | 27.20067 | 33.64901 | 9886 ft | 297 kts | 166° |
| 2026-04-21 14:27 | 27.18066 | 33.65494 | 9590 ft | 297 kts | 166° |
| 2026-04-21 14:27 | 27.16057 | 33.66090 | 9285 ft | 300 kts | 166° |
| 2026-04-21 14:27 | 27.14025 | 33.66692 | 8865 ft | 306 kts | 167° |
| 2026-04-21 14:28 | 27.11968 | 33.67301 | 8428 ft | 304 kts | 166° |
| 2026-04-21 14:28 | 27.09927 | 33.67907 | 8080 ft | 300 kts | 166° |
| 2026-04-21 14:28 | 27.07931 | 33.68499 | 7782 ft | 294 kts | 166° |
| 2026-04-21 14:28 | 27.05987 | 33.69075 | 7508 ft | 291 kts | 166° |
| 2026-04-21 14:29 | 27.04030 | 33.69653 | 7230 ft | 289 kts | 166° |
| 2026-04-21 14:29 | 27.02063 | 33.69993 | 6937 ft | 286 kts | 186° |
| 2026-04-21 14:29 | 27.00180 | 33.69419 | 6710 ft | 278 kts | 208° |
| 2026-04-21 14:29 | 26.98440 | 33.68499 | 6523 ft | 273 kts | 208° |
| 2026-04-21 14:30 | 26.96713 | 33.67654 | 6391 ft | 269 kts | 207° |
| 2026-04-21 14:30 | 26.94930 | 33.67045 | 6322 ft | 269 kts | 189° |
| 2026-04-21 14:30 | 26.93059 | 33.67159 | 6157 ft | 279 kts | 167° |
| 2026-04-21 14:30 | 26.91262 | 33.68073 | 6121 ft | 291 kts | 145° |
| 2026-04-21 14:31 | 26.89819 | 33.69675 | 6106 ft | 292 kts | 124° |
| 2026-04-21 14:31 | 26.88999 | 33.71733 | 5911 ft | 292 kts | 96° |
| 2026-04-21 14:31 | 26.89120 | 33.73946 | 5659 ft | 283 kts | 69° |
| 2026-04-21 14:31 | 26.90059 | 33.75819 | 5460 ft | 267 kts | 45° |
| 2026-04-21 14:32 | 26.91414 | 33.77159 | 5155 ft | 263 kts | 30° |
| 2026-04-21 14:32 | 26.92952 | 33.78264 | 4794 ft | 261 kts | 26° |
| 2026-04-21 14:32 | 26.94495 | 33.79310 | 4412 ft | 257 kts | 27° |
| 2026-04-21 14:32 | 26.96010 | 33.80351 | 4051 ft | 252 kts | 26° |
| 2026-04-21 14:33 | 26.97496 | 33.81391 | 3672 ft | 249 kts | 28° |
| 2026-04-21 14:33 | 26.98945 | 33.82417 | 3378 ft | 243 kts | 27° |
| 2026-04-21 14:33 | 27.00336 | 33.83407 | 3116 ft | 237 kts | 28° |
| 2026-04-21 14:33 | 27.01773 | 33.84199 | 2801 ft | 223 kts | 4° |
| 2026-04-21 14:34 | 27.03269 | 33.84121 | 2574 ft | 212 kts | 349° |
| 2026-04-21 14:34 | 27.04701 | 33.83806 | 2338 ft | 205 kts | 346° |
| 2026-04-21 14:34 | 27.06048 | 33.83493 | 2233 ft | 189 kts | 347° |
| 2026-04-21 14:34 | 27.07262 | 33.83183 | 2184 ft | 172 kts | 345° |
| 2026-04-21 14:35 | 27.08414 | 33.82856 | 1802 ft | 173 kts | 343° |
| 2026-04-21 14:35 | 27.09601 | 33.82508 | 1402 ft | 176 kts | 345° |
| 2026-04-21 14:35 | 27.10752 | 33.82176 | 1159 ft | 167 kts | 343° |
| 2026-04-21 14:35 | 27.11832 | 33.81859 | 949 ft | 153 kts | 344° |
| 2026-04-21 14:36 | 27.12825 | 33.81569 | 752 ft | 151 kts | 346° |
| 2026-04-21 14:36 | 27.13806 | 33.81284 | 557 ft | 144 kts | 347° |
| 2026-04-21 14:36 | 27.14777 | 33.81001 | 381 ft | 143 kts | 346° |
| 2026-04-21 14:36 | 27.15747 | 33.80719 | 251 ft | 154 kts | 345° |
| 2026-04-21 14:37 | 27.16852 | 33.80429 | 736 ft | 162 kts | 346° |
| 2026-04-21 14:37 | 27.17916 | 33.80137 | 1635 ft | 158 kts | 343° |
| 2026-04-21 14:37 | 27.19021 | 33.79848 | 2341 ft | 167 kts | 347° |
| 2026-04-21 14:37 | 27.20231 | 33.79569 | 2659 ft | 193 kts | 347° |
| 2026-04-21 14:38 | 27.21649 | 33.79344 | 2929 ft | 219 kts | 0° |
| 2026-04-21 14:38 | 27.23171 | 33.79727 | 3376 ft | 239 kts | 15° |
| 2026-04-21 14:38 | 27.24619 | 33.80694 | 3943 ft | 249 kts | 39° |
| 2026-04-21 14:38 | 27.25731 | 33.82218 | 3974 ft | 252 kts | 52° |
| 2026-04-21 14:39 | 27.26298 | 33.84084 | 3945 ft | 257 kts | 88° |
| 2026-04-21 14:39 | 27.25791 | 33.85974 | 4004 ft | 256 kts | 121° |
| 2026-04-21 14:39 | 27.24597 | 33.87436 | 4003 ft | 255 kts | 144° |
| 2026-04-21 14:39 | 27.23014 | 33.88291 | 3995 ft | 252 kts | 167° |
| 2026-04-21 14:40 | 27.21308 | 33.88427 | 3994 ft | 244 kts | 189° |
| 2026-04-21 14:40 | 27.19610 | 33.88253 | 4005 ft | 261 kts | 176° |
| 2026-04-21 14:40 | 27.17776 | 33.88679 | 4015 ft | 271 kts | 168° |
| 2026-04-21 14:40 | 27.15950 | 33.89177 | 3983 ft | 266 kts | 167° |
| 2026-04-21 14:41 | 27.14199 | 33.89703 | 3959 ft | 253 kts | 167° |
| 2026-04-21 14:41 | 27.12523 | 33.90198 | 3984 ft | 246 kts | 174° |
| 2026-04-21 14:41 | 27.10834 | 33.90316 | 3996 ft | 241 kts | 182° |
| 2026-04-21 14:41 | 27.09164 | 33.90336 | 3994 ft | 239 kts | 182° |
| 2026-04-21 14:42 | 27.07502 | 33.90383 | 3986 ft | 239 kts | 181° |
| 2026-04-21 14:42 | 27.05826 | 33.90453 | 3987 ft | 242 kts | 181° |
| 2026-04-21 14:42 | 27.04120 | 33.90537 | 4017 ft | 247 kts | 180° |
| 2026-04-21 14:42 | 27.02369 | 33.90579 | 3453 ft | 265 kts | 192° |
| 2026-04-21 14:43 | 27.00762 | 33.89679 | 2884 ft | 256 kts | 233° |
| 2026-04-21 14:43 | 27.00025 | 33.87962 | 2420 ft | 241 kts | 271° |
| 2026-04-21 14:43 | 27.00420 | 33.86277 | 2280 ft | 216 kts | 310° |
| 2026-04-21 14:43 | 27.01553 | 33.85293 | 2220 ft | 200 kts | 330° |
| 2026-04-21 14:44 | 27.02771 | 33.84609 | 2210 ft | 189 kts | 336° |
| 2026-04-21 14:44 | 27.03981 | 33.84151 | 2191 ft | 181 kts | 343° |
| 2026-04-21 14:44 | 27.05180 | 33.83794 | 2186 ft | 176 kts | 345° |
| 2026-04-21 14:44 | 27.06349 | 33.83456 | 2027 ft | 173 kts | 345° |
| 2026-04-21 14:45 | 27.07485 | 33.83127 | 1808 ft | 162 kts | 343° |
| 2026-04-21 14:45 | 27.08542 | 33.82818 | 1590 ft | 151 kts | 345° |
| 2026-04-21 14:45 | 27.09519 | 33.82532 | 1406 ft | 142 kts | 345° |
| 2026-04-21 14:45 | 27.10477 | 33.82255 | 1225 ft | 142 kts | 343° |
| 2026-04-21 14:46 | 27.11419 | 33.81979 | 1028 ft | 141 kts | 345° |
| 2026-04-21 14:46 | 27.12368 | 33.81702 | 846 ft | 141 kts | 346° |
| 2026-04-21 14:46 | 27.13325 | 33.81425 | 677 ft | 142 kts | 346° |
| 2026-04-21 14:46 | 27.14272 | 33.81153 | 469 ft | 141 kts | 346° |
| 2026-04-21 14:47 | 27.15223 | 33.80882 | 279 ft | 140 kts | 344° |
| 2026-04-21 14:47 | 27.16143 | 33.80602 | 93 ft | 132 kts | 347° |
| 2026-04-21 14:47 | 27.16980 | 33.80358 | 43 ft | 110 kts | 345° |
| 2026-04-21 14:47 | 27.17611 | 33.80171 | 53 ft | 76 kts | 345° |
| 2026-04-21 14:48 | 27.18012 | 33.80052 | 51 ft | 48 kts | 345° |
| 2026-04-21 14:48 | 27.18264 | 33.79978 | 50 ft | 28 kts | 345° |
| 2026-04-21 14:48 | 27.18391 | 33.79939 | 48 ft | 14 kts | 347° |
| 2026-04-21 14:48 | 27.18450 | 33.79962 | 48 ft | 8 kts | 59° |
| 2026-04-21 14:49 | 27.18468 | 33.80029 | 45 ft | 10 kts | 74° |
| 2026-04-21 14:49 | 27.18470 | 33.80039 | 47 ft | 0 kts | 74° |
| 2026-04-21 14:51 | 27.18472 | 33.80044 | 46 ft | 2 kts | 74° |
| 2026-04-21 14:51 | 27.18484 | 33.80066 | 49 ft | 4 kts | 40° |
| 2026-04-21 14:51 | 27.18518 | 33.80075 | 49 ft | 6 kts | 6° |
| 2026-04-21 14:52 | 27.18543 | 33.80084 | 50 ft | 6 kts | 28° |
| 2026-04-21 14:52 | 27.18565 | 33.80122 | 52 ft | 6 kts | 75° |
| 2026-04-21 14:52 | 27.18575 | 33.80166 | 53 ft | 6 kts | 75° |
| 2026-04-21 14:52 | 27.18600 | 33.80209 | 57 ft | 8 kts | 25° |
| 2026-04-21 14:53 | 27.18665 | 33.80199 | 54 ft | 12 kts | 345° |
| 2026-04-21 14:53 | 27.18752 | 33.80173 | 52 ft | 14 kts | 345° |
| 2026-04-21 14:53 | 27.18836 | 33.80149 | 54 ft | 12 kts | 345° |
| 2026-04-21 14:53 | 27.18915 | 33.80125 | 53 ft | 11 kts | 345° |
| 2026-04-21 14:54 | 27.18952 | 33.80131 | 57 ft | 4 kts | 47° |
| 2026-04-21 14:54 | 27.18959 | 33.80163 | 56 ft | 4 kts | 79° |
| 2026-04-21 14:54 | 27.18966 | 33.80199 | 57 ft | 1 kts | 76° |